createdAt,value
2019-05-15T00:00:12.812Z,4.87
2019-05-15T00:02:41.249Z,4.90
2019-05-15T00:05:09.896Z,4.37
2019-05-15T00:07:39.106Z,4.80
2019-05-15T00:10:08.935Z,5.50
2019-05-15T00:12:39.499Z,5.83
2019-05-15T00:15:09.359Z,5.37
2019-05-15T00:17:39.447Z,5.00
2019-05-15T00:20:09.896Z,6.17
2019-05-15T00:22:39.124Z,5.30
2019-05-15T00:25:09.394Z,4.20
2019-05-15T00:27:38.769Z,5.07
2019-05-15T00:30:11.469Z,4.00
2019-05-15T00:32:39.862Z,4.73
2019-05-15T00:35:09.423Z,5.30
2019-05-15T00:37:38.913Z,5.27
2019-05-15T00:40:09.162Z,4.33
2019-05-15T00:42:38.473Z,4.80
2019-05-15T00:45:09.386Z,5.00
2019-05-15T00:47:39.657Z,4.33
2019-05-15T00:50:09.417Z,4.90
2019-05-15T00:52:43.342Z,4.63
2019-05-15T00:55:11.964Z,4.20
2019-05-15T00:57:40.402Z,4.80
2019-05-15T01:00:09.532Z,4.60
2019-05-15T01:02:38.763Z,4.63
2019-05-15T01:05:08.371Z,4.50
2019-05-15T01:07:38.964Z,4.63
2019-05-15T01:10:10.158Z,5.27
2019-05-15T01:12:38.664Z,3.77
2019-05-15T01:15:09.182Z,4.87
2019-05-15T01:17:39.218Z,4.73
2019-05-15T01:20:08.590Z,5.27
2019-05-15T01:22:39.329Z,4.83
2019-05-15T01:25:08.599Z,4.77
2019-05-15T01:27:38.571Z,3.67
2019-05-15T01:30:08.913Z,4.40
2019-05-15T01:32:39.468Z,4.30
2019-05-15T01:35:09.567Z,4.13
2019-05-15T01:37:39.046Z,4.20
2019-05-15T01:40:09.069Z,4.53
2019-05-15T01:42:38.815Z,5.20
2019-05-15T01:45:08.640Z,4.00
2019-05-15T01:47:38.953Z,4.10
2019-05-15T01:50:09.735Z,3.40
2019-05-15T01:52:38.944Z,4.50
2019-05-15T01:55:09.281Z,4.57
2019-05-15T01:57:38.368Z,4.73
2019-05-15T02:00:09.732Z,4.50
2019-05-15T02:02:38.937Z,3.93
2019-05-15T02:05:08.816Z,3.90
2019-05-15T02:07:39.141Z,9.30
2019-05-15T02:10:09.447Z,7.70
2019-05-15T02:12:39.006Z,6.47
2019-05-15T02:15:10.429Z,4.73
2019-05-15T02:17:39.440Z,4.43
2019-05-15T02:20:08.720Z,3.90
2019-05-15T02:22:42.035Z,7.20
2019-05-15T02:25:08.913Z,7.63
2019-05-15T02:27:39.295Z,4.27
2019-05-15T02:30:22.546Z,4.30
2019-05-15T02:32:39.931Z,4.60
2019-05-15T02:35:09.977Z,5.27
2019-05-15T02:37:40.900Z,4.70
2019-05-15T02:40:10.577Z,4.67
2019-05-15T02:42:40.305Z,4.50
2019-05-15T02:45:10.174Z,4.90
2019-05-15T02:47:39.814Z,3.87
2019-05-15T02:50:11.403Z,4.27
2019-05-15T02:52:44.759Z,3.87
2019-05-15T02:55:10.291Z,4.57
2019-05-15T02:57:39.550Z,3.97
2019-05-15T03:00:11.082Z,4.33
2019-05-15T03:02:41.203Z,4.20
2019-05-15T03:05:10.558Z,5.20
2019-05-15T03:07:40.211Z,4.77
2019-05-15T03:10:09.792Z,4.63
2019-05-15T03:12:40.887Z,4.60
2019-05-15T03:15:10.135Z,4.40
2019-05-15T03:17:40.686Z,4.53
2019-05-15T03:20:11.406Z,4.77
2019-05-15T03:22:40.607Z,4.37
2019-05-15T03:25:10.886Z,3.90
2019-05-15T03:27:40.154Z,3.80
2019-05-15T03:30:13.560Z,4.20
2019-05-15T03:32:52.926Z,4.23
2019-05-15T03:35:14.523Z,4.33
2019-05-15T03:37:40.359Z,4.40
2019-05-15T03:40:10.421Z,4.10
2019-05-15T03:42:39.647Z,3.83
2019-05-15T03:45:10.027Z,4.30
2019-05-15T03:47:40.297Z,4.50
2019-05-15T03:50:09.961Z,4.40
2019-05-15T03:52:39.736Z,4.60
2019-05-15T03:55:10.942Z,4.37
2019-05-15T03:57:40.201Z,4.70
2019-05-15T04:00:09.800Z,4.97
2019-05-15T04:02:39.439Z,7.30
2019-05-15T04:05:11.630Z,4.50
2019-05-15T04:07:40.125Z,4.13
2019-05-15T04:10:10.341Z,4.40
2019-05-15T04:12:40.260Z,4.47
2019-05-15T04:15:10.675Z,5.10
2019-05-15T04:17:40.552Z,4.10
2019-05-15T04:20:10.345Z,3.67
2019-05-15T04:22:39.991Z,3.43
2019-05-15T04:25:10.153Z,4.13
2019-05-15T04:27:41.201Z,4.07
2019-05-15T04:30:10.999Z,3.70
2019-05-15T04:32:40.560Z,4.53
2019-05-15T04:35:10.163Z,4.07
2019-05-15T04:37:41.213Z,3.63
2019-05-15T04:40:10.166Z,3.93
2019-05-15T04:42:39.773Z,3.80
2019-05-15T04:45:10.264Z,3.87
2019-05-15T04:47:39.804Z,5.80
2019-05-15T04:50:09.547Z,9.90
2019-05-15T04:52:42.481Z,6.33
2019-05-15T04:55:10.212Z,4.10
2019-05-15T04:57:40.483Z,4.23
2019-05-15T05:00:10.544Z,4.20
2019-05-15T05:02:39.862Z,4.23
2019-05-15T05:05:10.371Z,4.47
2019-05-15T05:07:39.748Z,3.80
2019-05-15T05:10:10.000Z,11.90
2019-05-15T05:12:41.843Z,24.57
2019-05-15T05:15:09.299Z,6.40
2019-05-15T05:17:39.118Z,6.37
2019-05-15T05:20:08.388Z,4.07
2019-05-15T05:22:39.306Z,2.73
2019-05-15T05:25:08.120Z,2.80
2019-05-15T05:27:38.384Z,2.50
2019-05-15T05:30:08.910Z,2.45
2019-05-15T05:32:38.855Z,2.70
2019-05-15T05:35:13.195Z,2.80
2019-05-15T05:37:47.948Z,2.30
2019-05-15T05:40:20.281Z,2.60
2019-05-15T05:42:53.162Z,2.37
2019-05-15T05:45:21.733Z,2.80
2019-05-15T05:47:50.260Z,3.17
2019-05-15T05:50:23.882Z,2.37
2019-05-15T05:52:57.841Z,2.63
2019-05-15T05:55:29.669Z,2.50
2019-05-15T05:58:00.457Z,3.07
2019-05-15T06:00:41.593Z,2.57
2019-05-15T06:03:11.940Z,1.87
2019-05-15T06:05:44.353Z,2.63
2019-05-15T06:08:14.062Z,2.57
2019-05-15T06:10:42.533Z,2.33
2019-05-15T06:13:12.285Z,2.87
2019-05-15T06:15:45.743Z,2.57
2019-05-15T06:18:20.012Z,2.43
2019-05-15T06:20:52.840Z,2.33
2019-05-15T06:23:24.108Z,2.57
2019-05-15T06:25:51.730Z,2.37
2019-05-15T06:28:21.205Z,2.83
2019-05-15T06:30:52.031Z,3.33
2019-05-15T06:33:20.512Z,2.93
2019-05-15T06:35:49.838Z,4.40
2019-05-15T06:38:23.247Z,4.30
2019-05-15T06:40:58.229Z,3.67
2019-05-15T06:43:30.103Z,4.73
2019-05-15T06:45:58.787Z,4.13
2019-05-15T06:48:28.925Z,2.90
2019-05-15T06:50:59.179Z,3.67
2019-05-15T06:53:31.852Z,3.23
2019-05-15T06:56:07.929Z,3.40
2019-05-15T06:58:40.520Z,4.50
2019-05-15T07:01:13.248Z,4.20
2019-05-15T07:03:41.760Z,5.07
2019-05-15T07:06:10.228Z,3.50
2019-05-15T07:08:43.060Z,4.10
2019-05-15T07:11:15.023Z,4.30
2019-05-15T07:13:51.040Z,2.60
2019-05-15T07:16:22.137Z,2.43
2019-05-15T07:18:50.704Z,2.70
2019-05-15T07:21:20.612Z,1.80
2019-05-15T07:23:51.177Z,2.17
2019-05-15T07:26:24.957Z,3.20
2019-05-15T07:28:59.555Z,2.23
2019-05-15T07:31:32.756Z,2.20
2019-05-15T07:34:08.373Z,2.73
2019-05-15T07:36:39.969Z,2.03
2019-05-15T07:39:10.797Z,2.93
2019-05-15T07:41:39.693Z,2.10
2019-05-15T07:44:09.032Z,2.20
2019-05-15T07:46:40.725Z,1.70
2019-05-15T07:49:09.282Z,1.57
2019-05-15T07:51:38.271Z,2.40
2019-05-15T07:54:10.059Z,1.47
2019-05-15T07:56:41.992Z,1.50
2019-05-15T07:59:11.213Z,1.50
2019-05-15T08:01:40.206Z,1.43
2019-05-15T08:04:25.223Z,1.60
2019-05-15T08:06:48.899Z,2.20
2019-05-15T08:09:18.417Z,1.30
2019-05-15T08:11:51.094Z,1.70
2019-05-15T08:14:24.235Z,1.70
2019-05-15T08:16:49.729Z,1.37
2019-05-15T08:19:19.851Z,1.40
2019-05-15T08:21:52.725Z,2.10
2019-05-15T08:24:23.350Z,3.70
2019-05-15T08:26:51.831Z,2.30
2019-05-15T08:29:21.973Z,2.27
2019-05-15T08:31:52.876Z,1.60
2019-05-15T08:34:22.716Z,1.67
2019-05-15T08:36:51.122Z,1.50
2019-05-15T08:39:21.257Z,1.37
2019-05-15T08:41:53.725Z,1.90
2019-05-15T08:44:22.263Z,1.90
2019-05-15T08:46:50.968Z,1.43
2019-05-15T08:49:22.854Z,1.70
2019-05-15T08:51:54.503Z,1.30
2019-05-15T08:54:24.407Z,2.20
2019-05-15T08:56:53.358Z,1.60
2019-05-15T08:59:22.898Z,1.63
2019-05-15T09:01:55.727Z,1.40
2019-05-15T09:04:30.675Z,1.60
2019-05-15T09:06:54.561Z,1.37
2019-05-15T09:09:24.249Z,1.83
2019-05-15T09:11:58.470Z,1.20
2019-05-15T09:14:30.973Z,1.20
2019-05-15T09:17:08.520Z,1.57
2019-05-15T09:19:40.622Z,1.40
2019-05-15T09:22:13.721Z,1.03
2019-05-15T09:24:45.092Z,1.20
2019-05-15T09:27:12.428Z,1.33
2019-05-15T09:29:42.730Z,0.93
2019-05-15T09:32:15.219Z,1.30
2019-05-15T09:34:51.666Z,1.30
2019-05-15T09:37:18.073Z,1.10
2019-05-15T09:39:48.751Z,1.33
2019-05-15T09:42:19.736Z,1.60
2019-05-15T09:44:51.569Z,1.90
2019-05-15T09:47:24.850Z,1.10
2019-05-15T09:49:58.898Z,2.13
2019-05-15T09:52:30.981Z,1.40
2019-05-15T09:54:59.377Z,1.60
2019-05-15T09:57:30.189Z,1.63
2019-05-15T10:00:00.080Z,3.17
2019-05-15T10:02:33.248Z,1.60
2019-05-15T10:05:10.974Z,1.37
2019-05-15T10:07:40.775Z,1.47
2019-05-15T10:10:13.274Z,1.47
2019-05-15T10:12:41.600Z,1.20
2019-05-15T10:15:11.676Z,1.33
2019-05-15T10:17:42.104Z,1.37
2019-05-15T10:20:18.371Z,2.13
2019-05-15T10:22:44.465Z,1.20
2019-05-15T10:25:13.264Z,1.50
2019-05-15T10:27:45.028Z,1.23
2019-05-15T10:30:18.873Z,1.40
2019-05-15T10:32:52.117Z,1.73
2019-05-15T10:35:28.592Z,1.50
2019-05-15T10:38:00.621Z,1.40
2019-05-15T10:40:35.840Z,1.90
2019-05-15T10:43:09.283Z,1.10
2019-05-15T10:45:42.892Z,1.43
2019-05-15T10:48:18.994Z,1.20
2019-05-15T10:50:51.932Z,1.40
2019-05-15T10:53:23.984Z,1.70
2019-05-15T10:55:53.759Z,1.90
2019-05-15T10:58:22.469Z,1.70
2019-05-15T11:00:53.786Z,1.73
2019-05-15T11:03:26.444Z,1.73
2019-05-15T11:05:59.384Z,1.50
2019-05-15T11:08:29.155Z,1.30
2019-05-15T11:10:58.601Z,1.40
2019-05-15T11:13:28.827Z,1.40
2019-05-15T11:16:01.746Z,1.30
2019-05-15T11:18:34.692Z,1.53
2019-05-15T11:23:42.609Z,1.43
2019-05-15T11:26:14.365Z,1.70
2019-05-15T11:28:42.647Z,1.50
2019-05-15T11:31:11.103Z,2.00
2019-05-15T11:33:45.626Z,2.10
2019-05-15T11:36:18.741Z,1.10
2019-05-15T11:38:51.601Z,1.77
2019-05-15T11:41:29.438Z,2.87
2019-05-15T11:44:01.488Z,1.90
2019-05-15T11:46:35.337Z,1.80
2019-05-15T11:49:10.843Z,1.40
2019-05-15T11:51:44.949Z,1.73
2019-05-15T11:54:19.339Z,2.00
2019-05-15T11:56:49.951Z,1.90
2019-05-15T11:59:29.950Z,1.63
2019-05-15T12:01:49.004Z,2.40
2019-05-15T12:04:27.775Z,2.27
2019-05-15T12:06:59.687Z,2.50
2019-05-15T12:09:28.240Z,2.27
2019-05-15T12:12:00.338Z,2.30
2019-05-15T12:14:33.060Z,1.70
2019-05-15T12:17:11.381Z,2.37
2019-05-15T12:19:31.691Z,1.70
2019-05-15T12:22:01.610Z,2.10
2019-05-15T12:24:36.510Z,3.23
2019-05-15T12:27:15.213Z,2.73
2019-05-15T12:29:35.570Z,2.20
2019-05-15T12:32:21.973Z,2.10
2019-05-15T12:34:38.799Z,2.17
2019-05-15T12:37:10.003Z,1.70
2019-05-15T12:39:43.061Z,1.73
2019-05-15T13:00:02.071Z,2.20
2019-05-15T13:02:38.749Z,1.70
2019-05-15T13:05:10.327Z,1.63
2019-05-15T13:07:40.203Z,1.70
2019-05-15T13:10:10.057Z,1.70
2019-05-15T13:12:54.168Z,1.90
2019-05-15T13:15:10.411Z,1.80
2019-05-15T13:17:51.939Z,1.90
2019-05-15T13:20:19.445Z,1.60
2019-05-15T13:22:52.592Z,1.73
2019-05-15T13:25:23.434Z,1.90
2019-05-15T13:27:52.043Z,1.80
2019-05-15T13:30:21.133Z,2.30
2019-05-15T13:32:53.481Z,2.27
2019-05-15T13:35:28.443Z,1.87
2019-05-15T13:38:01.125Z,1.67
2019-05-15T13:40:37.731Z,2.87
2019-05-15T13:42:59.824Z,2.10
2019-05-15T13:45:30.128Z,1.50
2019-05-15T13:48:00.533Z,2.17
2019-05-15T13:50:29.356Z,2.00
2019-05-15T13:52:58.970Z,2.10
2019-05-15T13:55:36.265Z,1.90
2019-05-15T13:58:04.249Z,2.47
2019-05-15T14:00:39.502Z,2.10
2019-05-15T14:03:12.475Z,1.50
2019-05-15T14:05:45.195Z,3.00
2019-05-15T14:08:15.097Z,1.97
2019-05-15T14:10:43.507Z,3.47
2019-05-15T14:13:13.566Z,2.30
2019-05-15T14:15:48.637Z,1.73
2019-05-15T14:18:20.585Z,1.77
2019-05-15T14:20:50.064Z,1.63
2019-05-15T14:23:18.790Z,2.70
2019-05-15T14:25:50.325Z,1.80
2019-05-15T14:28:22.600Z,1.70
2019-05-15T14:30:55.077Z,1.60
2019-05-15T14:33:23.941Z,2.20
2019-05-15T14:35:53.137Z,2.20
2019-05-15T14:38:25.317Z,1.77
2019-05-15T14:40:58.979Z,2.00
2019-05-15T14:43:31.657Z,2.00
2019-05-15T14:46:04.116Z,2.10
2019-05-15T14:48:33.005Z,2.10
2019-05-15T14:51:02.709Z,2.20
2019-05-15T14:53:32.520Z,2.57
2019-05-15T14:56:04.814Z,1.73
2019-05-15T14:58:34.389Z,2.13
2019-05-15T15:01:04.598Z,2.20
2019-05-15T15:03:33.438Z,2.40
2019-05-15T15:06:01.927Z,2.67
2019-05-15T15:08:32.650Z,1.80
2019-05-15T15:11:01.039Z,2.30
2019-05-15T15:13:29.898Z,2.30
2019-05-15T15:15:59.106Z,2.57
2019-05-15T15:18:28.155Z,2.20
2019-05-15T15:20:57.969Z,2.30
2019-05-15T15:23:28.330Z,2.07
2019-05-15T15:25:57.831Z,2.30
2019-05-15T15:28:26.585Z,2.23
2019-05-15T15:30:55.104Z,3.50
2019-05-15T15:33:23.621Z,2.50
2019-05-15T15:35:53.386Z,2.10
2019-05-15T15:38:36.555Z,1.90
2019-05-15T15:40:55.334Z,1.90
2019-05-15T15:43:24.455Z,2.00
2019-05-15T15:45:52.995Z,1.50
2019-05-15T15:48:21.903Z,2.23
2019-05-15T15:50:50.394Z,1.83
2019-05-15T15:53:19.203Z,1.73
2019-05-15T15:55:48.965Z,2.07
2019-05-15T15:58:20.066Z,1.60
2019-05-15T16:00:49.004Z,2.00
2019-05-15T16:03:19.483Z,2.57
2019-05-15T16:05:48.849Z,2.40
2019-05-15T16:08:19.050Z,2.77
2019-05-15T16:10:48.315Z,2.10
2019-05-15T16:13:18.640Z,2.20
2019-05-15T16:15:48.767Z,2.20
2019-05-15T16:18:18.364Z,2.10
2019-05-15T16:20:48.569Z,2.20
2019-05-15T16:23:18.794Z,1.70
2019-05-15T16:25:48.961Z,2.07
2019-05-15T16:28:18.493Z,1.80
2019-05-15T16:30:51.360Z,2.10
2019-05-15T16:33:18.402Z,2.33
2019-05-15T16:35:48.794Z,2.27
2019-05-15T16:38:19.192Z,2.30
2019-05-15T16:40:48.914Z,2.43
2019-05-15T16:43:17.926Z,1.70
2019-05-15T16:45:49.584Z,2.17
2019-05-15T16:48:18.680Z,1.73
2019-05-15T16:50:48.751Z,2.17
2019-05-15T16:53:18.240Z,1.90
2019-05-15T16:55:48.049Z,2.10
2019-05-15T16:58:19.155Z,2.07
2019-05-15T17:00:49.671Z,1.60
2019-05-15T17:03:18.487Z,1.63
2019-05-15T17:05:47.960Z,2.33
2019-05-15T17:08:17.955Z,2.30
2019-05-15T17:10:48.279Z,2.30
2019-05-15T17:13:17.313Z,1.90
2019-05-15T17:15:47.770Z,2.07
2019-05-15T17:18:18.041Z,2.03
2019-05-15T17:20:48.254Z,2.40
2019-05-15T17:23:18.738Z,2.53
2019-05-15T17:25:48.782Z,2.73
2019-05-15T17:28:18.571Z,2.07
2019-05-15T17:30:48.809Z,1.97
2019-05-15T17:33:18.459Z,2.00
2019-05-15T17:35:48.740Z,2.50
2019-05-15T17:38:18.270Z,2.30
2019-05-15T17:40:48.437Z,1.60
2019-05-15T17:43:18.258Z,2.30
2019-05-15T17:45:48.183Z,1.93
2019-05-15T17:48:19.373Z,2.40
2019-05-15T17:50:51.781Z,2.20
2019-05-15T17:53:18.139Z,3.03
2019-05-15T17:55:47.947Z,2.73
2019-05-15T17:58:18.054Z,2.20
2019-05-15T18:00:48.665Z,3.07
2019-05-15T18:03:19.156Z,2.23
2019-05-15T18:05:48.427Z,2.37
2019-05-15T18:08:19.179Z,2.30
2019-05-15T18:10:47.900Z,2.67
2019-05-15T18:13:16.689Z,2.83
2019-05-15T18:15:45.180Z,2.50
2019-05-15T18:18:13.665Z,2.10
2019-05-15T18:20:42.087Z,2.50
2019-05-15T18:23:10.540Z,2.43
2019-05-15T18:25:39.138Z,2.57
2019-05-15T18:28:08.566Z,2.60
2019-05-15T18:30:38.878Z,4.20
2019-05-15T18:33:08.622Z,2.80
2019-05-15T18:35:38.601Z,2.50
2019-05-15T18:38:08.563Z,2.67
2019-05-15T18:40:38.423Z,2.30
2019-05-15T18:43:09.815Z,2.60
2019-05-15T18:45:38.289Z,1.80
2019-05-15T18:48:07.014Z,2.17
2019-05-15T18:50:37.625Z,2.70
2019-05-15T18:53:05.620Z,2.60
2019-05-15T18:55:34.243Z,2.97
2019-05-15T18:58:02.790Z,3.17
2019-05-15T19:00:31.214Z,2.70
2019-05-15T19:02:59.790Z,2.47
2019-05-15T19:05:28.354Z,2.93
2019-05-15T19:07:58.010Z,2.47
2019-05-15T19:10:28.248Z,2.40
2019-05-15T19:12:58.170Z,2.70
2019-05-15T19:15:30.152Z,2.37
2019-05-15T19:17:59.020Z,2.80
2019-05-15T19:20:28.089Z,2.97
2019-05-15T19:22:59.036Z,2.93
2019-05-15T19:25:28.650Z,2.57
2019-05-15T19:27:57.542Z,3.50
2019-05-15T19:30:28.473Z,2.63
2019-05-15T19:32:58.269Z,3.10
2019-05-15T19:35:28.085Z,2.43
2019-05-15T19:37:58.542Z,2.80
2019-05-15T19:40:28.403Z,2.57
2019-05-15T19:42:59.178Z,2.50
2019-05-15T19:45:28.174Z,2.47
2019-05-15T19:47:58.673Z,2.80
2019-05-15T19:50:28.780Z,2.53
2019-05-15T19:52:59.113Z,3.20
2019-05-15T19:55:27.851Z,2.10
2019-05-15T19:57:58.514Z,3.00
2019-05-15T20:00:28.513Z,4.23
2019-05-15T20:02:58.148Z,3.17
2019-05-15T20:05:28.974Z,3.13
2019-05-15T20:08:00.701Z,2.43
2019-05-15T20:10:29.513Z,2.30
2019-05-15T20:12:59.396Z,2.73
2019-05-15T20:15:28.616Z,2.80
2019-05-15T20:20:52.949Z,2.63
2019-05-15T20:23:45.511Z,2.50
2019-05-15T20:26:17.822Z,2.80
2019-05-15T20:29:10.739Z,2.27
2019-05-15T20:31:39.379Z,3.07
2019-05-15T20:34:09.315Z,2.90
2019-05-15T20:36:38.581Z,3.27
2019-05-15T20:39:08.328Z,3.27
2019-05-15T20:41:38.495Z,2.70
2019-05-15T20:44:08.892Z,3.07
2019-05-15T20:46:39.137Z,7.70
2019-05-15T20:49:08.550Z,3.50
2019-05-15T20:51:38.958Z,3.50
2019-05-15T20:54:08.336Z,2.20
2019-05-15T20:56:55.063Z,2.90
2019-05-15T20:59:23.863Z,2.70
2019-05-15T21:01:52.290Z,4.13
2019-05-15T21:04:24.161Z,3.30
2019-05-15T21:06:50.914Z,2.63
2019-05-15T21:09:19.330Z,3.67
2019-05-15T21:11:49.493Z,3.10
2019-05-15T21:14:17.984Z,3.00
2019-05-15T21:16:48.478Z,3.70
2019-05-15T21:19:18.781Z,3.33
2019-05-15T21:21:48.028Z,3.30
2019-05-15T21:24:18.199Z,3.10
2019-05-15T21:26:48.904Z,3.27
2019-05-15T21:29:18.515Z,3.90
2019-05-15T21:31:49.013Z,3.13
2019-05-15T21:34:32.188Z,3.90
2019-05-15T21:36:48.370Z,3.57
2019-05-15T21:39:17.727Z,3.97
2019-05-15T21:41:48.727Z,3.90
2019-05-15T21:44:18.922Z,3.33
2019-05-15T21:46:49.820Z,3.30
2019-05-15T21:49:19.002Z,3.80
2019-05-15T21:51:47.932Z,3.33
2019-05-15T21:54:17.985Z,3.20
2019-05-15T21:56:47.536Z,3.10
2019-05-15T21:59:18.652Z,3.43
2019-05-15T22:01:48.336Z,3.10
2019-05-15T22:04:17.073Z,3.30
2019-05-15T22:06:45.628Z,3.43
2019-05-15T22:09:18.258Z,3.43
2019-05-15T22:11:46.149Z,3.80
2019-05-15T22:14:14.663Z,3.40
2019-05-15T22:16:43.205Z,3.07
2019-05-15T22:19:11.662Z,2.67
2019-05-15T22:21:40.705Z,3.20
2019-05-15T22:24:09.636Z,3.37
2019-05-15T22:26:38.270Z,3.70
2019-05-15T22:29:08.798Z,3.43
2019-05-15T22:31:37.975Z,3.63
2019-05-15T22:34:07.747Z,2.97
2019-05-15T22:36:36.944Z,5.43
2019-05-15T22:39:08.715Z,3.97
2019-05-15T22:41:38.881Z,3.60
2019-05-15T22:44:08.026Z,3.27
2019-05-15T22:46:38.280Z,3.33
2019-05-15T22:49:06.824Z,3.50
2019-05-15T22:51:35.351Z,3.60
2019-05-15T22:54:04.079Z,4.70
2019-05-15T22:56:32.557Z,3.20
2019-05-15T22:59:00.993Z,3.57
2019-05-15T23:01:29.411Z,3.10
2019-05-15T23:03:58.418Z,3.80
2019-05-15T23:06:28.270Z,2.73
2019-05-15T23:08:58.059Z,3.90
2019-05-15T23:11:26.646Z,3.50
2019-05-15T23:13:55.099Z,3.90
2019-05-15T23:16:23.516Z,3.70
2019-05-15T23:18:51.961Z,4.50
2019-05-15T23:21:20.565Z,3.60
2019-05-15T23:23:49.089Z,4.03
2019-05-15T23:26:17.530Z,3.10
2019-05-15T23:28:47.946Z,4.40
2019-05-15T23:31:16.123Z,3.70
2019-05-15T23:33:44.541Z,4.40
2019-05-15T23:36:13.010Z,3.97
2019-05-15T23:38:41.438Z,3.50
2019-05-15T23:41:09.855Z,4.67
2019-05-15T23:43:38.946Z,3.90
2019-05-15T23:46:08.067Z,3.90
2019-05-15T23:48:38.255Z,3.87
2019-05-15T23:51:08.493Z,4.57
2019-05-15T23:53:37.244Z,5.53
2019-05-15T23:56:05.737Z,3.30
2019-05-15T23:58:34.244Z,4.53
